Time;durP1;ratioP1;P1;durP2;ratioP2;P2;SDS_P1;SDS_P2;PMS_P1;PMS_P2;Temp;Humidity;BMP_temperature;BMP_pressure;BME280_temperature;BME280_humidity;BME280_pressure;Samples;Min_cycle;Max_cycle;Signal;HPM_P1;HPM_P2
2022/12/24 00:00:17;;;;;;;10.35;1.95;;;;;;;13.73;62.78;98556.63;5145072;28;20711;-74
2022/12/24 00:03:07;;;;;;;9.07;1.58;;;;;;;14.03;62.11;98559.44;5145314;28;20521;-75
2022/12/24 00:05:58;;;;;;;9.00;1.35;;;;;;;13.41;63.47;98549.63;5144830;28;20077;-75
2022/12/24 00:08:49;;;;;;;9.57;1.85;;;;;;;13.84;62.28;98544.72;5143862;28;20473;-75
2022/12/24 00:11:40;;;;;;;10.55;1.67;;;;;;;14.01;61.61;98545.50;5143626;28;20125;-75
2022/12/24 00:14:30;;;;;;;7.97;1.50;;;;;;;13.62;63.43;98543.72;5134749;28;20046;-75
2022/12/24 00:17:20;;;;;;;12.25;1.85;;;;;;;13.84;62.32;98529.59;5144164;28;20079;-75
2022/12/24 00:20:10;;;;;;;7.65;1.25;;;;;;;13.01;64.29;98555.88;5143970;28;20062;-75
2022/12/24 00:23:00;;;;;;;12.73;1.90;;;;;;;13.32;63.21;98559.47;5142772;28;20054;-75
2022/12/24 00:25:50;;;;;;;12.25;1.75;;;;;;;13.23;63.25;98560.47;5144507;28;20057;-75
2022/12/24 00:28:43;;;;;;;14.20;1.88;;;;;;;13.13;63.12;98558.00;5131863;28;20051;-74
2022/12/24 00:31:33;;;;;;;10.57;1.73;;;;;;;12.98;64.58;98559.72;5139798;28;20065;-75
2022/12/24 00:34:24;;;;;;;7.30;1.75;;;;;;;12.98;65.04;98538.44;5140284;28;20125;-75
2022/12/24 00:37:14;;;;;;;13.40;1.70;;;;;;;13.51;63.25;98566.25;5140826;28;20055;-75
2022/12/24 00:40:05;;;;;;;8.35;1.48;;;;;;;13.31;63.85;98576.47;5142318;28;20172;-75
2022/12/24 00:42:55;;;;;;;11.52;2.03;;;;;;;13.35;64.33;98576.94;5143866;28;20046;-75
2022/12/24 00:45:45;;;;;;;7.55;1.90;;;;;;;13.42;64.53;98556.63;5140182;28;20441;-75
2022/12/24 00:48:36;;;;;;;7.60;1.45;;;;;;;13.53;64.32;98590.84;5141378;28;20102;-75
2022/12/24 00:51:26;;;;;;;7.57;1.27;;;;;;;13.41;64.75;98584.25;5142115;28;20057;-75
2022/12/24 00:54:17;;;;;;;6.72;1.60;;;;;;;13.50;64.80;98580.53;5140515;28;20058;-75
2022/12/24 00:57:07;;;;;;;9.60;1.80;;;;;;;13.48;63.81;98590.56;5143080;28;20050;-75
2022/12/24 00:59:56;;;;;;;10.57;1.65;;;;;;;13.16;64.45;98570.97;5141222;28;20050;-75
2022/12/24 01:02:46;;;;;;;14.18;2.15;;;;;;;13.24;64.50;98601.22;5156162;28;20057;-75
2022/12/24 01:05:37;;;;;;;11.57;1.55;;;;;;;13.27;64.08;98607.06;5137019;28;20122;-75
2022/12/24 01:08:27;;;;;;;8.57;1.60;;;;;;;13.63;64.04;98601.31;5141276;28;20056;-75
2022/12/24 01:11:18;;;;;;;9.48;1.50;;;;;;;13.37;64.70;98607.72;5142667;28;20051;-75
2022/12/24 01:14:08;;;;;;;15.05;1.98;;;;;;;13.48;64.59;98627.84;5134131;28;20059;-75
2022/12/24 01:16:58;;;;;;;9.15;1.80;;;;;;;13.45;64.78;98627.34;5142367;28;20201;-75
2022/12/24 01:19:48;;;;;;;11.50;1.85;;;;;;;13.67;65.04;98652.41;5142571;28;20687;-75
2022/12/24 01:22:38;;;;;;;9.15;1.40;;;;;;;13.56;65.04;98665.09;5141031;28;20098;-75
2022/12/24 01:25:27;;;;;;;9.40;1.63;;;;;;;13.69;65.55;98679.72;5137666;28;20201;-75
2022/12/24 01:28:19;;;;;;;12.50;1.42;;;;;;;13.23;66.66;98690.09;5142408;28;20109;-74
2022/12/24 01:31:14;;;;;;;13.40;1.58;;;;;;;13.40;66.93;98675.78;5140813;28;20062;-75
2022/12/24 01:34:05;;;;;;;8.80;2.10;;;;;;;12.03;69.76;98686.13;5142667;28;20136;-74
2022/12/24 01:36:55;;;;;;;13.65;2.13;;;;;;;11.47;72.45;98710.38;5141491;28;20058;-75
2022/12/24 01:39:45;;;;;;;14.80;1.90;;;;;;;11.86;73.10;98687.88;5141986;28;20477;-74
2022/12/24 01:46:02;;;;;;;14.80;1.55;;;;;;;12.16;71.15;98697.97;5137080;28;20046;-74
2022/12/24 01:48:58;;;;;;;9.40;1.25;;;;;;;11.77;71.95;98697.59;5137342;28;20077;-75
2022/12/24 01:51:57;;;;;;;11.98;1.75;;;;;;;12.00;70.46;98703.22;5140511;28;20058;-74
2022/12/24 01:54:54;;;;;;;9.20;1.58;;;;;;;12.20;68.88;98715.25;5155046;28;20066;-75
2022/12/24 01:57:53;;;;;;;9.57;1.45;;;;;;;11.42;71.31;98722.44;5151658;28;20113;-74
2022/12/24 02:00:44;;;;;;;12.00;1.75;;;;;;;11.91;69.25;98704.16;5141344;28;20095;-75
2022/12/24 02:03:34;;;;;;;11.40;1.60;;;;;;;11.45;70.77;98738.06;5139187;28;20061;-74
2022/12/24 02:06:24;;;;;;;16.08;1.70;;;;;;;11.02;71.90;98740.56;5137896;28;20057;-75
2022/12/24 02:09:15;;;;;;;11.93;1.75;;;;;;;11.32;71.56;98748.25;5141193;28;20420;-74
2022/12/24 02:12:06;;;;;;;14.68;2.20;;;;;;;11.06;72.49;98730.50;5142078;28;20049;-75
2022/12/24 02:14:56;;;;;;;8.70;1.63;;;;;;;11.44;71.98;98741.72;5142018;28;20059;-75
2022/12/24 02:18:13;;;;;;;10.05;1.85;;;;;;;11.57;71.03;98743.97;5140930;28;20568;-75
2022/12/24 02:21:23;;;;;;;10.93;1.60;;;;;;;11.93;69.63;98747.34;5140754;28;20043;-74
2022/12/24 02:24:42;;;;;;;13.82;1.88;;;;;;;11.48;71.98;98751.03;5124523;28;20047;-74
2022/12/24 02:27:51;;;;;;;12.70;1.70;;;;;;;11.67;70.10;98761.44;5126357;28;20083;-74
2022/12/24 02:30:47;;;;;;;14.02;2.05;;;;;;;11.07;72.54;98779.91;5139975;28;20042;-73
2022/12/24 02:33:51;;;;;;;13.75;1.75;;;;;;;11.36;72.08;98776.19;5141845;28;20058;-74
2022/12/24 02:37:02;;;;;;;14.60;2.38;;;;;;;11.99;69.26;98773.31;5141384;28;20057;-74
2022/12/24 02:40:04;;;;;;;15.77;1.67;;;;;;;11.98;69.45;98763.63;5140737;28;20137;-73
2022/12/24 02:43:16;;;;;;;14.13;2.03;;;;;;;11.39;71.42;98767.88;5153073;28;20129;-73
2022/12/24 02:46:24;;;;;;;17.65;2.35;;;;;;;11.48;70.71;98769.63;5138278;28;20054;-73
2022/12/24 02:49:15;;;;;;;11.70;1.88;;;;;;;11.61;69.74;98759.41;5140375;28;20047;-73
2022/12/24 02:52:24;;;;;;;20.10;3.13;;;;;;;12.34;68.30;98780.25;5141842;28;20066;-73
2022/12/24 02:55:33;;;;;;;16.05;2.10;;;;;;;12.57;67.40;98790.31;5140458;28;20057;-73
2022/12/24 02:58:48;;;;;;;12.43;2.08;;;;;;;12.46;67.10;98794.09;5136382;28;20065;-74
2022/12/24 03:02:24;;;;;;;9.55;2.30;;;;;;;12.37;67.39;98790.56;5138092;28;20053;-75
2022/12/24 03:05:30;;;;;;;16.02;1.90;;;;;;;12.43;67.14;98795.25;5137338;28;20125;-75
2022/12/24 03:08:35;;;;;;;10.77;1.73;;;;;;;12.59;67.03;98804.28;5139457;28;20062;-75
2022/12/24 03:11:26;;;;;;;11.27;2.20;;;;;;;12.58;66.64;98806.13;5136805;28;20050;-75
2022/12/24 03:14:17;;;;;;;13.13;2.03;;;;;;;12.60;66.91;98796.13;5138402;28;20122;-74
2022/12/24 03:17:11;;;;;;;13.15;2.00;;;;;;;12.52;67.52;98801.44;5141712;28;20422;-74
2022/12/24 03:20:03;;;;;;;16.27;1.88;;;;;;;12.54;67.45;98793.28;5139986;28;20072;-75
2022/12/24 03:22:57;;;;;;;12.52;2.20;;;;;;;12.61;66.93;98807.59;5144347;28;20121;-75
2022/12/24 03:25:48;;;;;;;11.07;2.10;;;;;;;12.70;66.78;98834.06;5143999;28;20078;-73
2022/12/24 03:28:43;;;;;;;16.98;3.97;;;;;;;12.56;66.99;98820.56;5142191;28;20065;-73
2022/12/24 03:31:45;;;;;;;13.77;1.65;;;;;;;12.57;66.49;98804.44;5143813;28;20564;-73
2022/12/24 03:34:37;;;;;;;11.75;2.15;;;;;;;12.45;67.01;98803.09;5132757;28;20077;-73
2022/12/24 03:37:31;;;;;;;13.97;2.33;;;;;;;12.44;66.55;98804.06;5142988;28;20061;-74
2022/12/24 03:40:21;;;;;;;16.77;2.40;;;;;;;12.50;67.11;98822.03;5144657;28;20433;-73
2022/12/24 03:43:12;;;;;;;11.82;2.50;;;;;;;12.41;66.64;98822.97;5142658;28;20117;-73
2022/12/24 03:46:07;;;;;;;13.73;2.30;;;;;;;12.43;66.87;98845.78;5141490;28;20062;-73
2022/12/24 03:49:02;;;;;;;16.02;2.13;;;;;;;12.34;66.91;98824.63;5121178;28;20050;-73
2022/12/24 03:51:53;;;;;;;14.63;2.10;;;;;;;12.41;67.29;98839.78;5143841;28;20522;-72
2022/12/24 03:54:44;;;;;;;15.45;2.10;;;;;;;12.35;66.51;98813.84;5143328;28;20081;-72
2022/12/24 03:57:38;;;;;;;14.52;2.30;;;;;;;12.44;66.37;98812.03;5142846;28;20054;-73
2022/12/24 04:00:33;;;;;;;18.90;2.17;;;;;;;12.38;66.33;98816.19;5127591;28;20237;-73
2022/12/24 04:03:24;;;;;;;14.90;2.50;;;;;;;12.42;66.22;98828.16;5141345;28;20055;-73
2022/12/24 04:06:16;;;;;;;19.63;2.53;;;;;;;12.43;66.07;98827.16;5137771;28;20055;-73
2022/12/24 04:09:07;;;;;;;19.50;2.92;;;;;;;12.38;66.38;98823.31;5144685;28;20047;-73
2022/12/24 04:12:03;;;;;;;19.45;2.70;;;;;;;12.57;65.69;98823.06;5141076;28;20065;-73
2022/12/24 04:15:00;;;;;;;18.42;2.92;;;;;;;12.42;65.94;98824.69;5139407;28;20054;-73
2022/12/24 04:17:52;;;;;;;;;;;;;;;12.60;66.61;98845.84;5143399;28;20149;-72
2022/12/24 04:20:45;;;;;;;13.15;2.55;;;;;;;12.53;67.33;98845.66;5142644;28;19929;-73
2022/12/24 04:23:36;;;;;;;16.77;2.97;;;;;;;12.57;67.67;98836.34;5143161;28;20061;-73
2022/12/24 04:26:31;;;;;;;16.95;2.40;;;;;;;12.32;68.42;98863.84;5140008;28;20512;-73
2022/12/24 04:29:21;;;;;;;13.13;2.50;;;;;;;12.03;70.08;98877.44;5141313;28;20061;-73
2022/12/24 04:32:17;;;;;;;23.13;2.50;;;;;;;12.10;69.50;98857.22;5141303;28;20061;-74
2022/12/24 04:35:08;;;;;;;21.67;1.92;;;;;;;11.75;71.01;98827.91;5144457;28;20049;-74
2022/12/24 04:38:02;;;;;;;19.75;2.30;;;;;;;11.95;70.41;98872.91;5143496;28;20528;-73
2022/12/24 04:41:03;;;;;;;13.98;2.13;;;;;;;11.68;71.30;98873.81;5137473;28;20047;-71
2022/12/24 04:43:54;;;;;;;17.50;2.78;;;;;;;11.75;72.32;98843.84;5139427;28;20051;-74
2022/12/24 04:46:44;;;;;;;18.58;2.30;;;;;;;11.69;72.22;98873.69;5140991;28;20065;-72
2022/12/24 04:49:34;;;;;;;16.40;2.15;;;;;;;11.77;71.30;98873.75;5141882;28;20062;-73
2022/12/24 04:52:24;;;;;;;18.13;3.33;;;;;;;11.93;70.19;98861.59;5140257;28;20161;-72
2022/12/24 04:55:15;;;;;;;15.77;3.10;;;;;;;11.78;70.95;98850.66;5143396;28;20069;-73
2022/12/24 04:58:05;;;;;;;20.08;2.80;;;;;;;11.97;70.48;98878.91;5137987;28;20142;-73
2022/12/24 05:00:55;;;;;;;21.00;2.60;;;;;;;12.03;70.81;98880.09;5140088;28;20046;-73
2022/12/24 05:03:46;;;;;;;18.77;2.60;;;;;;;11.99;71.46;98882.25;5143517;28;20062;-74
2022/12/24 05:06:35;;;;;;;16.00;2.40;;;;;;;12.08;70.71;98870.66;5137664;28;20185;-74
2022/12/24 05:09:25;;;;;;;22.85;3.08;;;;;;;11.94;71.21;98858.78;5142818;28;20058;-74
2022/12/24 05:12:15;;;;;;;12.50;2.35;;;;;;;12.08;70.64;98853.88;5141088;28;20049;-74
2022/12/24 05:15:06;;;;;;;15.10;2.78;;;;;;;12.03;70.68;98851.72;5127927;28;20480;-74
2022/12/24 05:17:57;;;;;;;16.35;2.90;;;;;;;11.87;71.12;98860.41;5142915;28;20643;-74
2022/12/24 05:20:49;;;;;;;17.83;2.70;;;;;;;11.75;71.02;98854.47;5142254;28;20061;-74
2022/12/24 05:26:50;;;;;;;20.00;3.17;;;;;;;11.90;70.48;98883.16;5141386;28;20430;-74
2022/12/24 05:29:40;;;;;;;18.92;3.20;;;;;;;11.70;71.54;98872.69;5140058;28;20053;-74
2022/12/24 05:32:31;;;;;;;17.08;2.28;;;;;;;11.70;71.42;98877.19;5141110;28;20050;-73
2022/12/24 05:35:21;;;;;;;19.52;2.38;;;;;;;11.66;71.27;98857.22;5143115;28;20137;-74
2022/12/24 05:38:12;;;;;;;17.75;3.17;;;;;;;11.62;71.01;98863.81;5142453;28;20057;-74
2022/12/24 05:41:02;;;;;;;20.08;2.53;;;;;;;11.62;71.23;98874.44;5140017;28;20645;-74
2022/12/24 05:43:52;;;;;;;12.38;2.08;;;;;;;11.54;70.87;98856.63;5138104;28;20117;-74
2022/12/24 05:46:42;;;;;;;15.50;2.40;;;;;;;11.55;70.69;98874.22;5142357;28;20109;-74
2022/12/24 05:49:33;;;;;;;12.48;2.40;;;;;;;11.58;70.82;98871.25;5140746;28;20058;-74
2022/12/24 05:52:23;;;;;;;19.63;2.40;;;;;;;11.70;69.42;98878.00;5139478;28;20113;-74
2022/12/24 05:55:13;;;;;;;16.23;2.63;;;;;;;11.62;70.63;98883.25;5141805;28;20058;-74
2022/12/24 05:58:03;;;;;;;20.15;3.13;;;;;;;11.87;69.41;98880.81;5139197;28;20185;-74
2022/12/24 06:00:53;;;;;;;18.98;2.83;;;;;;;11.62;70.16;98891.22;5141330;28;20529;-74
2022/12/24 06:03:43;;;;;;;14.20;2.92;;;;;;;11.55;69.76;98895.44;5142389;28;20514;-74
2022/12/24 06:06:34;;;;;;;16.02;2.80;;;;;;;11.49;70.27;98896.09;5135348;28;20055;-74
2022/12/24 06:09:24;;;;;;;15.77;2.65;;;;;;;11.57;69.70;98892.66;5136273;28;20188;-74
2022/12/24 06:12:14;;;;;;;15.75;2.70;;;;;;;11.39;70.10;98909.44;5150686;28;20401;-74
2022/12/24 06:15:05;;;;;;;13.90;2.33;;;;;;;11.27;70.38;98907.97;5137552;28;20054;-74
2022/12/24 06:17:55;;;;;;;14.93;2.63;;;;;;;11.15;70.56;98903.84;5138624;28;20059;-74
2022/12/24 06:20:50;;;;;;;9.38;2.50;;;;;;;11.00;70.85;98906.19;5140309;28;20520;-74
2022/12/24 06:23:42;;;;;;;15.43;1.98;;;;;;;10.93;70.85;98907.78;5135836;28;20404;-74
2022/12/24 06:26:32;;;;;;;14.25;2.47;;;;;;;10.58;70.68;98888.13;5126278;28;20413;-74
2022/12/24 06:29:22;;;;;;;14.07;2.40;;;;;;;10.90;69.86;98914.22;5136028;28;20109;-74
2022/12/24 06:32:12;;;;;;;20.13;2.47;;;;;;;10.75;70.86;98918.31;5137929;28;20055;-74
2022/12/24 06:35:02;;;;;;;16.35;2.20;;;;;;;10.58;70.46;98904.03;5138982;28;20047;-74
2022/12/24 06:37:52;;;;;;;13.32;2.28;;;;;;;10.62;70.64;98917.81;5140747;28;20132;-74
2022/12/24 06:40:44;;;;;;;18.55;2.50;;;;;;;10.62;70.34;98929.25;5140078;28;20054;-74
2022/12/24 06:43:34;;;;;;;15.57;2.83;;;;;;;10.46;70.18;98929.03;5140253;28;20053;-74
2022/12/24 06:46:25;;;;;;;11.55;1.88;;;;;;;10.47;70.68;98933.38;5138678;28;20061;-74
2022/12/24 06:49:15;;;;;;;17.00;2.65;;;;;;;10.15;70.33;98921.28;5137624;28;20051;-74
2022/12/24 06:52:05;;;;;;;16.10;2.72;;;;;;;10.27;70.81;98940.56;5139902;28;20109;-74
2022/12/24 06:54:56;;;;;;;23.05;2.60;;;;;;;10.30;71.16;98946.41;5137218;28;20548;-74
2022/12/24 06:57:46;;;;;;;20.60;2.47;;;;;;;10.35;70.52;98949.44;5139941;28;20152;-74
2022/12/24 07:00:36;;;;;;;18.48;2.38;;;;;;;10.39;70.22;98952.63;5140146;28;20061;-74
2022/12/24 07:03:26;;;;;;;16.50;2.60;;;;;;;10.41;70.69;98957.81;5135168;28;20050;-74
2022/12/24 07:06:20;;;;;;;17.55;3.10;;;;;;;10.30;71.18;98954.34;5139883;28;20054;-74
2022/12/24 07:09:13;;;;;;;17.60;2.60;;;;;;;10.40;70.79;98961.41;5137609;28;20445;-72
2022/12/24 07:12:03;;;;;;;13.60;2.15;;;;;;;10.45;70.20;98964.50;5137402;28;20074;-72
2022/12/24 07:14:53;;;;;;;15.60;2.80;;;;;;;10.45;69.57;98972.44;5137445;28;20505;-73
2022/12/24 07:17:44;;;;;;;14.45;2.45;;;;;;;10.53;69.47;98983.19;5140083;28;20524;-72
2022/12/24 07:20:34;;;;;;;13.18;1.92;;;;;;;10.69;69.26;98979.91;5139846;28;20181;-72
2022/12/24 07:23:25;;;;;;;13.77;2.33;;;;;;;10.69;69.18;98995.81;5139801;28;21861;-72
2022/12/24 07:26:15;;;;;;;16.90;2.20;;;;;;;10.74;69.49;98997.06;5139449;28;20489;-73
2022/12/24 07:29:05;;;;;;;10.07;2.10;;;;;;;10.58;69.26;98980.91;5136669;28;20546;-73
2022/12/24 07:31:55;;;;;;;13.02;2.33;;;;;;;10.77;68.67;99003.88;5138291;28;20141;-74
2022/12/24 07:34:46;;;;;;;15.48;2.67;;;;;;;10.83;68.16;98995.34;5141006;28;20058;-74
2022/12/24 07:37:36;;;;;;;13.40;2.63;;;;;;;10.99;67.96;98986.75;5140564;28;20053;-74
2022/12/24 07:40:26;;;;;;;14.18;2.67;;;;;;;11.10;66.70;98993.72;5139460;28;20053;-74
2022/12/24 07:43:17;;;;;;;19.98;2.70;;;;;;;11.26;66.42;99004.53;5138550;28;20050;-73
2022/12/24 07:46:07;;;;;;;19.02;2.83;;;;;;;10.97;67.95;99008.13;5140210;28;20082;-71
2022/12/24 07:48:57;;;;;;;13.00;2.22;;;;;;;10.91;68.41;98989.31;5138561;28;20058;-74
2022/12/24 07:51:47;;;;;;;13.45;2.33;;;;;;;11.11;67.51;98996.19;5137126;28;21016;-74
2022/12/24 07:54:38;;;;;;;23.58;3.03;;;;;;;11.16;67.52;98998.41;5138476;28;20059;-74
2022/12/24 07:57:28;;;;;;;15.40;2.55;;;;;;;11.09;67.37;99005.28;5136946;28;20059;-73
2022/12/24 08:00:18;;;;;;;10.75;2.50;;;;;;;11.23;66.92;99003.00;5140923;28;20126;-73
2022/12/24 08:03:16;;;;;;;16.40;2.67;;;;;;;11.06;67.76;99009.09;5137716;28;20058;-71
2022/12/24 08:06:07;;;;;;;23.25;3.15;;;;;;;10.92;68.38;99004.25;5138450;28;20051;-71
2022/12/24 08:08:58;;;;;;;19.80;3.33;;;;;;;10.90;67.62;99003.56;5141576;28;20057;-72
2022/12/24 08:11:48;;;;;;;18.10;3.03;;;;;;;11.08;67.58;99020.38;5142975;28;20043;-71
2022/12/24 08:14:41;;;;;;;19.50;3.30;;;;;;;11.11;67.93;99040.47;5143236;28;20539;-70
2022/12/24 08:17:31;;;;;;;18.45;2.50;;;;;;;11.20;67.78;99035.13;5141617;28;20051;-68
2022/12/24 08:20:22;;;;;;;14.48;2.30;;;;;;;11.63;65.50;99036.31;5143020;28;20066;-68
2022/12/24 08:23:12;;;;;;;11.50;2.22;;;;;;;11.64;64.61;99015.88;5140402;28;20152;-72
2022/12/24 08:26:06;;;;;;;10.55;1.80;;;;;;;11.63;65.17;99040.78;5138995;28;20520;-73
2022/12/24 08:28:56;;;;;;;13.82;2.35;;;;;;;11.51;65.61;99038.31;5140635;28;20463;-70
2022/12/24 08:31:46;;;;;;;17.45;2.33;;;;;;;11.63;65.08;99033.66;5141719;28;20117;-70
2022/12/24 08:34:37;;;;;;;19.77;3.45;;;;;;;11.53;65.49;99031.03;5142544;28;20063;-69
2022/12/24 08:37:27;;;;;;;15.73;3.20;;;;;;;11.47;66.70;99044.09;5143132;28;20157;-69
2022/12/24 08:40:17;;;;;;;18.25;4.13;;;;;;;11.54;66.98;99050.47;5139669;28;20069;-70
2022/12/24 08:43:08;;;;;;;12.63;3.13;;;;;;;11.56;66.86;99051.16;5140615;28;20073;-69
2022/12/24 08:46:04;;;;;;;15.40;2.90;;;;;;;11.58;67.22;99056.31;5143926;28;20050;-71
2022/12/24 08:48:54;;;;;;;29.45;2.88;;;;;;;11.54;66.98;99055.78;5139661;28;20046;-72
2022/12/24 08:51:44;;;;;;;19.25;3.08;;;;;;;11.47;66.68;99052.88;5141726;28;20062;-73
2022/12/24 08:54:34;;;;;;;20.92;3.13;;;;;;;11.56;66.57;99063.63;5140070;28;20113;-72
2022/12/24 08:57:24;;;;;;;20.67;2.45;;;;;;;11.50;66.56;99065.84;5141106;28;20110;-72
2022/12/24 09:00:15;;;;;;;19.30;2.92;;;;;;;11.42;66.43;99064.91;5139918;28;20494;-72
2022/12/24 09:03:05;;;;;;;20.95;2.70;;;;;;;11.58;66.62;99065.09;5141848;28;20098;-72
2022/12/24 09:05:55;;;;;;;13.23;2.50;;;;;;;11.63;66.37;99062.84;5143425;28;20054;-73
2022/12/24 09:08:46;;;;;;;14.82;2.55;;;;;;;11.81;66.39;99059.38;5140766;28;20059;-71
2022/12/24 09:11:36;;;;;;;14.10;2.58;;;;;;;11.92;64.72;99064.50;5140702;28;20085;-72
2022/12/24 09:14:26;;;;;;;13.60;2.10;;;;;;;12.05;63.81;99080.09;5140694;28;20498;-70
2022/12/24 09:17:16;;;;;;;12.05;2.53;;;;;;;12.15;63.90;99087.03;5139165;28;20051;-69
2022/12/24 09:20:08;;;;;;;14.18;2.45;;;;;;;12.01;64.78;99089.34;5151752;28;20069;-71
2022/12/24 09:22:58;;;;;;;17.65;1.90;;;;;;;11.95;64.84;99094.28;5139685;28;20057;-72
2022/12/24 09:25:49;;;;;;;13.13;2.60;;;;;;;11.95;65.26;99104.06;5140260;28;20077;-71
2022/12/24 09:28:39;;;;;;;19.25;2.63;;;;;;;11.91;64.26;99097.38;5141885;28;20059;-71
2022/12/24 09:31:29;;;;;;;12.70;2.40;;;;;;;12.06;64.73;99106.53;5139583;28;20090;-72
2022/12/24 09:34:21;;;;;;;22.05;3.92;;;;;;;11.62;64.69;99109.00;5141146;28;20540;-72
2022/12/24 09:37:19;;;;;;;12.52;3.13;;;;;;;12.05;64.11;99106.66;5139810;28;20181;-73
2022/12/24 09:40:22;;;;;;;17.75;2.92;;;;;;;12.32;64.47;99121.75;5138455;28;20061;-72
2022/12/24 09:43:19;;;;;;;15.45;2.78;;;;;;;12.19;64.38;99106.16;5150749;28;20457;-73
2022/12/24 09:46:25;;;;;;;15.05;2.25;;;;;;;12.41;63.43;99132.28;5139662;28;20122;-74
2022/12/24 09:49:29;;;;;;;19.33;2.53;;;;;;;12.40;63.65;99129.78;5140481;28;20061;-75
2022/12/24 09:52:29;;;;;;;10.07;2.45;;;;;;;12.45;63.37;99136.31;5136235;28;20129;-73
2022/12/24 09:55:29;;;;;;;16.38;2.40;;;;;;;12.57;63.44;99126.25;5139742;28;20274;-75
2022/12/24 09:58:34;;;;;;;23.00;2.58;;;;;;;12.66;62.73;99122.69;5139102;28;20421;-73
2022/12/24 10:01:25;;;;;;;14.95;2.10;;;;;;;12.69;62.71;99117.06;5125483;28;20101;-74
2022/12/24 10:04:19;;;;;;;12.75;2.25;;;;;;;12.58;63.16;99116.47;5139934;28;20053;-71
2022/12/24 10:07:27;;;;;;;12.30;2.90;;;;;;;12.86;63.11;99118.03;5138941;28;20054;-71
2022/12/24 10:10:17;;;;;;;17.63;4.15;;;;;;;12.98;62.31;99123.94;5136742;28;20129;-70
2022/12/24 10:13:34;;;;;;;17.42;2.92;;;;;;;12.84;62.74;99117.31;5135998;28;20137;-70
2022/12/24 10:16:34;;;;;;;19.08;3.17;;;;;;;13.07;62.12;99119.47;5135905;28;20062;-69
2022/12/24 10:19:57;;;;;;;15.00;2.25;;;;;;;13.20;60.96;99119.06;5138205;28;20146;-70
2022/12/24 10:23:12;;;;;;;16.50;2.50;;;;;;;13.27;61.23;99128.97;5139842;28;20046;-69
2022/12/24 10:26:23;;;;;;;14.93;2.45;;;;;;;13.50;62.13;99110.59;5139594;28;20102;-69
2022/12/24 10:29:18;;;;;;;16.40;2.30;;;;;;;13.79;61.61;99138.72;5139133;28;20065;-70
2022/12/24 10:32:08;;;;;;;18.05;2.72;;;;;;;13.22;62.72;99141.06;5138206;28;20061;-69
2022/12/24 10:35:18;;;;;;;16.13;2.45;;;;;;;13.67;62.76;99143.47;5137801;28;20053;-70
2022/12/24 10:38:08;;;;;;;21.35;3.00;;;;;;;13.39;62.79;99142.84;5140228;28;20052;-69
2022/12/24 10:41:00;;;;;;;17.50;2.60;;;;;;;13.23;63.76;99150.72;5136484;28;20053;-69
2022/12/24 10:43:50;;;;;;;20.23;2.78;;;;;;;13.10;64.12;99137.81;5140900;28;20050;-69
2022/12/24 10:46:41;;;;;;;22.25;2.88;;;;;;;12.93;66.01;99151.00;5138958;28;20062;-68
2022/12/24 10:49:59;;;;;;;24.25;2.80;;;;;;;12.89;66.27;99159.47;5141335;28;20133;-71
2022/12/24 10:52:54;;;;;;;24.83;3.30;;;;;;;12.79;66.30;99161.38;5140108;28;20053;-69
2022/12/24 10:55:47;;;;;;;17.70;3.05;;;;;;;13.02;66.12;99146.59;5138751;28;20105;-71
2022/12/24 10:58:45;;;;;;;19.27;2.60;;;;;;;13.09;66.48;99152.94;5137188;28;20431;-69
2022/12/24 11:01:45;;;;;;;21.60;2.90;;;;;;;13.21;67.02;99155.34;5138035;28;20457;-69
2022/12/24 11:04:50;;;;;;;15.65;2.20;;;;;;;13.43;65.66;99149.53;5138922;28;20055;-69
2022/12/24 11:07:41;;;;;;;21.60;2.70;;;;;;;13.09;67.01;99152.13;5139047;28;20133;-69
2022/12/24 11:10:35;;;;;;;26.02;3.40;;;;;;;13.31;66.21;99145.44;5140140;28;20440;-70
2022/12/24 11:13:34;;;;;;;;;;;;;;;13.42;66.22;99145.19;5140233;28;20058;-70
2022/12/24 11:16:34;;;;;;;20.02;3.25;;;;;;;12.94;67.03;99143.84;5133371;28;19926;-69
2022/12/24 11:19:31;;;;;;;18.88;2.72;;;;;;;13.12;67.07;99152.66;5136233;28;20051;-71
2022/12/24 11:22:27;;;;;;;13.55;2.85;;;;;;;13.23;66.67;99148.88;5136470;28;20084;-72
2022/12/24 11:25:21;;;;;;;16.67;3.10;;;;;;;13.38;67.16;99144.69;5138059;28;20058;-72
2022/12/24 11:28:20;;;;;;;25.33;3.38;;;;;;;13.15;66.81;99148.84;5139200;28;20054;-71
2022/12/24 11:31:19;;;;;;;19.13;3.58;;;;;;;12.99;66.75;99157.53;5144021;28;20058;-70
2022/12/24 11:34:32;;;;;;;28.83;3.97;;;;;;;12.66;68.14;99167.91;5140069;28;20047;-73
2022/12/24 11:37:24;;;;;;;21.50;3.65;;;;;;;12.32;69.72;99183.72;5140672;28;20070;-72
2022/12/24 11:40:20;;;;;;;28.08;4.07;;;;;;;12.50;69.69;99182.91;5131484;28;20063;-70
2022/12/24 11:43:20;;;;;;;18.92;2.97;;;;;;;12.58;69.30;99172.31;5140143;28;20050;-72
2022/12/24 11:46:13;;;;;;;20.88;3.53;;;;;;;12.75;68.46;99173.28;5141317;28;20549;-70
2022/12/24 11:49:10;;;;;;;29.25;3.60;;;;;;;12.82;68.60;99169.88;5137203;28;20535;-71
2022/12/24 11:52:09;;;;;;;20.40;3.83;;;;;;;12.14;69.36;99167.72;5130671;28;20077;-71
2022/12/24 11:55:26;;;;;;;29.55;4.18;;;;;;;12.33;70.24;99168.59;5144329;28;20161;-70
2022/12/24 11:58:21;;;;;;;27.42;4.32;;;;;;;12.57;69.46;99160.84;5141284;28;20053;-71
2022/12/24 12:01:26;;;;;;;24.30;4.00;;;;;;;12.03;70.78;99157.31;5133723;28;20077;-73
2022/12/24 12:04:20;;;;;;;29.77;3.72;;;;;;;12.25;70.17;99156.06;5143668;28;20133;-71
2022/12/24 12:07:17;;;;;;;21.33;3.90;;;;;;;12.65;69.12;99158.28;5143188;28;20057;-71
2022/12/24 12:10:23;;;;;;;24.75;4.68;;;;;;;12.33;69.60;99137.53;5142864;28;20050;-71
2022/12/24 12:13:31;;;;;;;28.05;5.00;;;;;;;12.51;69.10;99145.50;5138006;28;20055;-71
2022/12/24 12:17:00;;;;;;;26.67;4.00;;;;;;;12.44;69.58;99141.78;5140221;28;20093;-71
2022/12/24 12:19:59;;;;;;;17.88;3.63;;;;;;;12.44;69.18;99129.31;5137683;28;20185;-72
2022/12/24 12:23:06;;;;;;;17.50;3.53;;;;;;;12.53;69.69;99134.72;5136956;28;20051;-71
2022/12/24 12:26:30;;;;;;;16.52;3.65;;;;;;;12.50;69.27;99135.84;5140639;28;20061;-70
2022/12/24 12:29:28;;;;;;;19.15;3.92;;;;;;;12.54;68.90;99137.22;5156848;28;20059;-69
2022/12/24 12:32:34;;;;;;;28.00;4.53;;;;;;;12.53;69.12;99145.34;5139399;28;20062;-69
2022/12/24 12:35:35;;;;;;;25.88;4.15;;;;;;;12.45;68.67;99138.16;5135550;28;20058;-69
2022/12/24 12:38:28;;;;;;;24.83;4.22;;;;;;;12.40;68.60;99156.38;5140532;28;20161;-69
2022/12/24 12:41:55;;;;;;;25.92;4.20;;;;;;;12.30;70.42;99171.56;5152352;28;20051;-69
2022/12/24 12:45:23;;;;;;;24.42;4.40;;;;;;;12.61;69.57;99164.03;5139487;28;20053;-71
2022/12/24 12:48:34;;;;;;;23.15;3.78;;;;;;;12.69;69.41;99166.78;5138804;28;20257;-69
2022/12/24 12:51:49;;;;;;;19.52;4.00;;;;;;;12.74;69.00;99163.66;5139170;28;20062;-69
2022/12/24 12:55:00;;;;;;;23.20;3.65;;;;;;;12.73;69.20;99162.00;5137409;28;20115;-69
2022/12/24 12:57:56;;;;;;;18.40;3.92;;;;;;;12.85;69.56;99161.59;5138260;28;20086;-70
2022/12/24 13:00:51;;;;;;;17.48;3.78;;;;;;;12.72;69.16;99152.34;5143072;28;20323;-71
2022/12/24 13:04:08;;;;;;;20.30;3.40;;;;;;;12.92;68.98;99172.47;5141309;28;20070;-70
2022/12/24 13:07:28;;;;;;;24.38;5.07;;;;;;;12.91;68.87;99160.13;5141383;28;20682;-70
2022/12/24 13:10:35;;;;;;;23.92;4.53;;;;;;;12.96;68.55;99165.84;5141566;28;20054;-70
2022/12/24 13:13:32;;;;;;;23.98;3.58;;;;;;;12.99;67.66;99157.53;5142086;28;20038;-70
2022/12/24 13:16:31;;;;;;;22.27;4.07;;;;;;;12.97;68.45;99159.50;5143092;28;20065;-69
2022/12/24 13:19:42;;;;;;;32.53;3.83;;;;;;;13.08;68.08;99159.28;5140749;28;20062;-68
2022/12/24 13:22:32;;;;;;;25.52;3.53;;;;;;;13.07;68.87;99162.91;5140752;28;20525;-71
2022/12/24 13:25:29;;;;;;;22.95;4.35;;;;;;;13.10;68.48;99159.94;5142373;28;20412;-71
2022/12/24 13:28:19;;;;;;;18.00;3.33;;;;;;;13.06;68.75;99161.25;5138447;28;20612;-70
2022/12/24 13:31:18;;;;;;;20.27;3.78;;;;;;;13.03;68.31;99163.38;5139690;28;20513;-70
2022/12/24 13:34:36;;;;;;;23.05;3.60;;;;;;;12.94;68.26;99157.16;5140194;28;20057;-70
2022/12/24 13:37:33;;;;;;;17.33;3.40;;;;;;;12.70;68.47;99141.84;5139044;28;20124;-70
2022/12/24 13:40:26;;;;;;;22.60;3.25;;;;;;;12.73;68.18;99154.84;5138202;28;20185;-71
2022/12/24 13:43:16;;;;;;;20.83;3.72;;;;;;;12.58;68.41;99135.94;5141330;28;20071;-73